sensor_id;sensor_type;location;lat;lon;timestamp;temperature;humidity
15162;DHT22;7681;48.900;9.182;2022-09-09T00:01:22;15.50;99.90
15162;DHT22;7681;48.900;9.182;2022-09-09T00:03:53;15.20;99.90
15162;DHT22;7681;48.900;9.182;2022-09-09T00:06:24;15.20;99.90
15162;DHT22;7681;48.900;9.182;2022-09-09T00:09:01;15.30;99.90
15162;DHT22;7681;48.900;9.182;2022-09-09T00:11:33;15.40;99.90
15162;DHT22;7681;48.900;9.182;2022-09-09T00:14:11;15.40;99.90
15162;DHT22;7681;48.900;9.182;2022-09-09T00:16:43;15.50;99.90
15162;DHT22;7681;48.900;9.182;2022-09-09T00:19:19;15.50;99.90
15162;DHT22;7681;48.900;9.182;2022-09-09T00:21:53;15.50;99.90
15162;DHT22;7681;48.900;9.182;2022-09-09T00:24:26;15.60;99.90
15162;DHT22;7681;48.900;9.182;2022-09-09T00:26:58;15.60;99.90
15162;DHT22;7681;48.900;9.182;2022-09-09T00:29:35;15.60;99.90
15162;DHT22;7681;48.900;9.182;2022-09-09T00:32:09;15.60;99.90
15162;DHT22;7681;48.900;9.182;2022-09-09T00:34:47;15.70;99.90
15162;DHT22;7681;48.900;9.182;2022-09-09T00:37:18;15.70;99.90
15162;DHT22;7681;48.900;9.182;2022-09-09T00:39:48;15.60;99.90
15162;DHT22;7681;48.900;9.182;2022-09-09T00:42:20;15.60;99.90
15162;DHT22;7681;48.900;9.182;2022-09-09T00:44:56;15.60;99.90
15162;DHT22;7681;48.900;9.182;2022-09-09T00:47:43;15.60;99.90
15162;DHT22;7681;48.900;9.182;2022-09-09T00:50:22;15.70;99.90
15162;DHT22;7681;48.900;9.182;2022-09-09T00:52:59;15.60;99.90
15162;DHT22;7681;48.900;9.182;2022-09-09T00:55:34;15.60;99.90
15162;DHT22;7681;48.900;9.182;2022-09-09T00:58:07;15.60;99.90
15162;DHT22;7681;48.900;9.182;2022-09-09T01:00:42;15.60;99.90
15162;DHT22;7681;48.900;9.182;2022-09-09T01:03:22;15.60;99.90
15162;DHT22;7681;48.900;9.182;2022-09-09T01:06:00;15.60;99.90
15162;DHT22;7681;48.900;9.182;2022-09-09T01:11:20;15.60;99.90
15162;DHT22;7681;48.900;9.182;2022-09-09T01:13:53;15.60;99.90
15162;DHT22;7681;48.900;9.182;2022-09-09T01:16:28;15.60;99.90
15162;DHT22;7681;48.900;9.182;2022-09-09T01:18:58;15.50;99.90
15162;DHT22;7681;48.900;9.182;2022-09-09T01:21:32;15.60;99.90
15162;DHT22;7681;48.900;9.182;2022-09-09T01:24:08;15.50;99.90
15162;DHT22;7681;48.900;9.182;2022-09-09T01:26:45;15.50;99.90
15162;DHT22;7681;48.900;9.182;2022-09-09T01:29:15;15.50;99.90
15162;DHT22;7681;48.900;9.182;2022-09-09T01:31:52;15.50;99.90
15162;DHT22;7681;48.900;9.182;2022-09-09T01:34:22;15.60;99.90
15162;DHT22;7681;48.900;9.182;2022-09-09T01:36:54;15.60;99.90
15162;DHT22;7681;48.900;9.182;2022-09-09T01:39:24;15.60;99.90
15162;DHT22;7681;48.900;9.182;2022-09-09T01:41:58;15.60;99.90
15162;DHT22;7681;48.900;9.182;2022-09-09T01:44:27;15.60;99.90
15162;DHT22;7681;48.900;9.182;2022-09-09T01:46:57;15.60;99.90
15162;DHT22;7681;48.900;9.182;2022-09-09T01:49:27;15.70;99.90
15162;DHT22;7681;48.900;9.182;2022-09-09T01:51:57;15.70;99.90
15162;DHT22;7681;48.900;9.182;2022-09-09T01:54:28;15.70;99.90
15162;DHT22;7681;48.900;9.182;2022-09-09T01:57:06;15.70;99.90
15162;DHT22;7681;48.900;9.182;2022-09-09T01:59:42;15.70;99.90
15162;DHT22;7681;48.900;9.182;2022-09-09T02:02:16;15.70;99.90
15162;DHT22;7681;48.900;9.182;2022-09-09T02:04:47;15.80;99.90
15162;DHT22;7681;48.900;9.182;2022-09-09T02:07:28;15.80;99.90
15162;DHT22;7681;48.900;9.182;2022-09-09T02:10:01;15.80;99.90
15162;DHT22;7681;48.900;9.182;2022-09-09T02:12:34;15.80;99.90
15162;DHT22;7681;48.900;9.182;2022-09-09T02:15:07;15.80;99.90
15162;DHT22;7681;48.900;9.182;2022-09-09T02:17:38;15.70;99.90
15162;DHT22;7681;48.900;9.182;2022-09-09T02:20:10;15.70;99.90
15162;DHT22;7681;48.900;9.182;2022-09-09T02:22:41;15.60;99.90
15162;DHT22;7681;48.900;9.182;2022-09-09T02:25:13;15.70;99.90
15162;DHT22;7681;48.900;9.182;2022-09-09T02:27:47;15.70;99.90
15162;DHT22;7681;48.900;9.182;2022-09-09T02:30:18;15.60;99.90
15162;DHT22;7681;48.900;9.182;2022-09-09T02:32:49;15.50;99.90
15162;DHT22;7681;48.900;9.182;2022-09-09T02:35:21;15.50;99.90
15162;DHT22;7681;48.900;9.182;2022-09-09T02:37:53;15.50;99.90
15162;DHT22;7681;48.900;9.182;2022-09-09T02:40:25;15.40;99.90
15162;DHT22;7681;48.900;9.182;2022-09-09T02:42:58;15.40;99.90
15162;DHT22;7681;48.900;9.182;2022-09-09T02:45:31;15.40;99.90
15162;DHT22;7681;48.900;9.182;2022-09-09T02:48:03;15.30;99.90
15162;DHT22;7681;48.900;9.182;2022-09-09T02:50:39;15.30;99.90
15162;DHT22;7681;48.900;9.182;2022-09-09T02:53:12;15.20;99.90
15162;DHT22;7681;48.900;9.182;2022-09-09T02:55:46;15.20;99.90
15162;DHT22;7681;48.900;9.182;2022-09-09T02:58:19;15.10;99.90
15162;DHT22;7681;48.900;9.182;2022-09-09T03:00:49;15.00;99.90
15162;DHT22;7681;48.900;9.182;2022-09-09T03:03:19;15.00;99.90
15162;DHT22;7681;48.900;9.182;2022-09-09T03:05:50;15.00;99.90
15162;DHT22;7681;48.900;9.182;2022-09-09T03:08:20;14.90;99.90
15162;DHT22;7681;48.900;9.182;2022-09-09T03:10:49;14.90;99.90
15162;DHT22;7681;48.900;9.182;2022-09-09T03:13:23;14.80;99.90
15162;DHT22;7681;48.900;9.182;2022-09-09T03:15:53;14.80;99.90
15162;DHT22;7681;48.900;9.182;2022-09-09T03:18:23;14.80;99.90
15162;DHT22;7681;48.900;9.182;2022-09-09T03:20:53;14.80;99.90
15162;DHT22;7681;48.900;9.182;2022-09-09T03:23:24;14.80;99.90
15162;DHT22;7681;48.900;9.182;2022-09-09T03:25:54;14.80;99.90
15162;DHT22;7681;48.900;9.182;2022-09-09T03:28:27;14.70;99.90
15162;DHT22;7681;48.900;9.182;2022-09-09T03:30:59;14.70;99.90
15162;DHT22;7681;48.900;9.182;2022-09-09T03:33:28;14.70;99.90
15162;DHT22;7681;48.900;9.182;2022-09-09T03:35:58;14.70;99.90
15162;DHT22;7681;48.900;9.182;2022-09-09T03:38:28;14.80;99.90
15162;DHT22;7681;48.900;9.182;2022-09-09T03:40:59;14.80;99.90
15162;DHT22;7681;48.900;9.182;2022-09-09T03:43:31;14.80;99.90
15162;DHT22;7681;48.900;9.182;2022-09-09T03:46:01;14.80;99.90
15162;DHT22;7681;48.900;9.182;2022-09-09T03:48:31;14.80;99.90
15162;DHT22;7681;48.900;9.182;2022-09-09T03:51:01;14.70;99.90
15162;DHT22;7681;48.900;9.182;2022-09-09T03:53:30;14.80;99.90
15162;DHT22;7681;48.900;9.182;2022-09-09T03:56:01;14.70;99.90
15162;DHT22;7681;48.900;9.182;2022-09-09T03:58:33;14.80;99.90
15162;DHT22;7681;48.900;9.182;2022-09-09T04:01:04;14.80;99.90
15162;DHT22;7681;48.900;9.182;2022-09-09T04:03:35;14.80;99.90
15162;DHT22;7681;48.900;9.182;2022-09-09T04:06:05;14.90;99.90
15162;DHT22;7681;48.900;9.182;2022-09-09T04:08:36;14.90;99.90
15162;DHT22;7681;48.900;9.182;2022-09-09T04:11:06;15.00;99.90
15162;DHT22;7681;48.900;9.182;2022-09-09T04:13:38;15.00;99.90
15162;DHT22;7681;48.900;9.182;2022-09-09T04:16:09;15.00;99.90
15162;DHT22;7681;48.900;9.182;2022-09-09T04:18:40;15.00;99.90
15162;DHT22;7681;48.900;9.182;2022-09-09T04:21:10;14.90;99.90
15162;DHT22;7681;48.900;9.182;2022-09-09T04:23:40;15.00;99.90
15162;DHT22;7681;48.900;9.182;2022-09-09T04:26:09;15.10;99.90
15162;DHT22;7681;48.900;9.182;2022-09-09T04:28:42;15.10;99.90
15162;DHT22;7681;48.900;9.182;2022-09-09T04:31:14;15.20;99.90
15162;DHT22;7681;48.900;9.182;2022-09-09T04:33:45;15.20;99.90
15162;DHT22;7681;48.900;9.182;2022-09-09T04:36:15;15.20;99.90
15162;DHT22;7681;48.900;9.182;2022-09-09T04:38:46;15.20;99.90
15162;DHT22;7681;48.900;9.182;2022-09-09T04:41:15;15.20;99.90
15162;DHT22;7681;48.900;9.182;2022-09-09T04:43:48;15.30;99.90
15162;DHT22;7681;48.900;9.182;2022-09-09T04:46:20;15.30;99.90
15162;DHT22;7681;48.900;9.182;2022-09-09T04:48:50;15.40;99.90
15162;DHT22;7681;48.900;9.182;2022-09-09T04:51:20;15.50;99.90
15162;DHT22;7681;48.900;9.182;2022-09-09T04:53:50;15.60;99.90
15162;DHT22;7681;48.900;9.182;2022-09-09T04:56:20;15.60;99.90
15162;DHT22;7681;48.900;9.182;2022-09-09T04:58:56;15.60;99.90
15162;DHT22;7681;48.900;9.182;2022-09-09T05:01:26;15.60;99.90
15162;DHT22;7681;48.900;9.182;2022-09-09T05:03:55;15.60;99.90
15162;DHT22;7681;48.900;9.182;2022-09-09T05:06:25;15.60;99.90
15162;DHT22;7681;48.900;9.182;2022-09-09T05:08:55;15.50;99.90
15162;DHT22;7681;48.900;9.182;2022-09-09T05:11:26;15.50;99.90
15162;DHT22;7681;48.900;9.182;2022-09-09T05:13:59;15.50;99.90
15162;DHT22;7681;48.900;9.182;2022-09-09T05:16:29;15.40;99.90
15162;DHT22;7681;48.900;9.182;2022-09-09T05:18:59;15.40;99.90
15162;DHT22;7681;48.900;9.182;2022-09-09T05:21:29;15.40;99.90
15162;DHT22;7681;48.900;9.182;2022-09-09T05:23:59;15.40;99.90
15162;DHT22;7681;48.900;9.182;2022-09-09T05:26:29;15.40;99.90
15162;DHT22;7681;48.900;9.182;2022-09-09T05:29:02;15.50;99.90
15162;DHT22;7681;48.900;9.182;2022-09-09T05:31:32;15.50;99.90
15162;DHT22;7681;48.900;9.182;2022-09-09T05:34:02;15.60;99.90
15162;DHT22;7681;48.900;9.182;2022-09-09T05:36:32;15.60;99.90
15162;DHT22;7681;48.900;9.182;2022-09-09T05:39:02;15.70;99.90
15162;DHT22;7681;48.900;9.182;2022-09-09T05:41:32;15.70;99.90
15162;DHT22;7681;48.900;9.182;2022-09-09T05:44:05;15.80;99.90
15162;DHT22;7681;48.900;9.182;2022-09-09T05:46:34;15.80;99.90
15162;DHT22;7681;48.900;9.182;2022-09-09T05:49:04;15.80;99.90
15162;DHT22;7681;48.900;9.182;2022-09-09T05:51:35;15.80;99.90
15162;DHT22;7681;48.900;9.182;2022-09-09T05:54:04;15.80;99.90
15162;DHT22;7681;48.900;9.182;2022-09-09T05:56:34;15.90;99.90
15162;DHT22;7681;48.900;9.182;2022-09-09T05:59:06;15.90;99.90
15162;DHT22;7681;48.900;9.182;2022-09-09T06:01:36;16.00;99.90
15162;DHT22;7681;48.900;9.182;2022-09-09T06:04:07;16.00;99.90
15162;DHT22;7681;48.900;9.182;2022-09-09T06:06:37;16.10;99.90
15162;DHT22;7681;48.900;9.182;2022-09-09T06:09:08;16.20;99.90
15162;DHT22;7681;48.900;9.182;2022-09-09T06:11:40;16.30;99.90
15162;DHT22;7681;48.900;9.182;2022-09-09T06:14:12;16.40;99.90
15162;DHT22;7681;48.900;9.182;2022-09-09T06:16:44;16.40;99.90
15162;DHT22;7681;48.900;9.182;2022-09-09T06:19:14;16.40;99.90
15162;DHT22;7681;48.900;9.182;2022-09-09T06:21:44;16.40;99.90
15162;DHT22;7681;48.900;9.182;2022-09-09T06:24:14;16.50;99.90
15162;DHT22;7681;48.900;9.182;2022-09-09T06:26:46;16.60;99.90
15162;DHT22;7681;48.900;9.182;2022-09-09T06:29:18;16.70;99.90
15162;DHT22;7681;48.900;9.182;2022-09-09T06:31:48;16.70;99.90
15162;DHT22;7681;48.900;9.182;2022-09-09T06:34:18;16.70;99.90
15162;DHT22;7681;48.900;9.182;2022-09-09T06:36:48;16.70;99.90
15162;DHT22;7681;48.900;9.182;2022-09-09T06:39:18;16.80;99.90
15162;DHT22;7681;48.900;9.182;2022-09-09T06:41:49;16.90;99.90
15162;DHT22;7681;48.900;9.182;2022-09-09T06:44:22;17.00;99.90
15162;DHT22;7681;48.900;9.182;2022-09-09T06:46:52;17.00;99.90
15162;DHT22;7681;48.900;9.182;2022-09-09T06:49:22;17.10;99.90
15162;DHT22;7681;48.900;9.182;2022-09-09T06:51:52;17.20;99.90
15162;DHT22;7681;48.900;9.182;2022-09-09T06:54:22;17.30;99.90
15162;DHT22;7681;48.900;9.182;2022-09-09T06:56:52;17.50;99.90
15162;DHT22;7681;48.900;9.182;2022-09-09T06:59:25;17.50;99.90
15162;DHT22;7681;48.900;9.182;2022-09-09T07:01:55;17.50;99.90
15162;DHT22;7681;48.900;9.182;2022-09-09T07:04:24;17.60;99.90
15162;DHT22;7681;48.900;9.182;2022-09-09T07:06:54;17.70;99.90
15162;DHT22;7681;48.900;9.182;2022-09-09T07:09:25;17.80;99.90
15162;DHT22;7681;48.900;9.182;2022-09-09T07:11:56;17.80;99.90
15162;DHT22;7681;48.900;9.182;2022-09-09T07:14:28;17.80;99.90
15162;DHT22;7681;48.900;9.182;2022-09-09T07:16:59;17.80;99.90
15162;DHT22;7681;48.900;9.182;2022-09-09T07:19:29;17.90;99.90
15162;DHT22;7681;48.900;9.182;2022-09-09T07:21:59;17.90;99.90
15162;DHT22;7681;48.900;9.182;2022-09-09T07:24:30;17.90;99.90
15162;DHT22;7681;48.900;9.182;2022-09-09T07:26:59;18.10;99.90
15162;DHT22;7681;48.900;9.182;2022-09-09T07:29:32;18.10;99.90
15162;DHT22;7681;48.900;9.182;2022-09-09T07:32:02;18.40;99.90
15162;DHT22;7681;48.900;9.182;2022-09-09T07:34:32;18.50;99.90
15162;DHT22;7681;48.900;9.182;2022-09-09T07:37:02;18.70;99.90
15162;DHT22;7681;48.900;9.182;2022-09-09T07:39:32;18.70;99.90
15162;DHT22;7681;48.900;9.182;2022-09-09T07:42:01;18.70;99.90
15162;DHT22;7681;48.900;9.182;2022-09-09T07:44:34;18.60;99.90
15162;DHT22;7681;48.900;9.182;2022-09-09T07:47:06;18.50;99.90
15162;DHT22;7681;48.900;9.182;2022-09-09T07:49:35;17.90;99.90
15162;DHT22;7681;48.900;9.182;2022-09-09T07:52:05;18.50;99.90
15162;DHT22;7681;48.900;9.182;2022-09-09T07:54:35;18.70;99.90
15162;DHT22;7681;48.900;9.182;2022-09-09T07:57:05;18.80;99.90
15162;DHT22;7681;48.900;9.182;2022-09-09T07:59:37;18.90;99.90
15162;DHT22;7681;48.900;9.182;2022-09-09T08:02:08;19.00;99.90
15162;DHT22;7681;48.900;9.182;2022-09-09T08:04:38;19.20;99.90
15162;DHT22;7681;48.900;9.182;2022-09-09T08:07:08;19.30;99.90
15162;DHT22;7681;48.900;9.182;2022-09-09T08:09:38;19.50;99.90
15162;DHT22;7681;48.900;9.182;2022-09-09T08:12:08;19.70;99.90
15162;DHT22;7681;48.900;9.182;2022-09-09T08:14:42;19.70;99.90
15162;DHT22;7681;48.900;9.182;2022-09-09T08:17:12;19.90;99.90
15162;DHT22;7681;48.900;9.182;2022-09-09T08:19:41;20.10;99.90
15162;DHT22;7681;48.900;9.182;2022-09-09T08:22:11;20.10;99.90
15162;DHT22;7681;48.900;9.182;2022-09-09T08:24:41;20.20;99.90
15162;DHT22;7681;48.900;9.182;2022-09-09T08:27:11;20.40;99.90
15162;DHT22;7681;48.900;9.182;2022-09-09T08:29:44;20.50;99.90
15162;DHT22;7681;48.900;9.182;2022-09-09T08:32:13;20.70;99.90
15162;DHT22;7681;48.900;9.182;2022-09-09T08:34:43;21.00;99.90
15162;DHT22;7681;48.900;9.182;2022-09-09T08:37:14;21.50;99.90
15162;DHT22;7681;48.900;9.182;2022-09-09T08:39:44;21.80;99.90
15162;DHT22;7681;48.900;9.182;2022-09-09T08:42:23;21.90;99.90
15162;DHT22;7681;48.900;9.182;2022-09-09T08:45:00;22.00;99.90
15162;DHT22;7681;48.900;9.182;2022-09-09T08:47:35;22.10;99.90
15162;DHT22;7681;48.900;9.182;2022-09-09T08:50:13;22.40;99.90
15162;DHT22;7681;48.900;9.182;2022-09-09T08:52:49;22.70;99.90
15162;DHT22;7681;48.900;9.182;2022-09-09T08:55:22;22.60;99.90
15162;DHT22;7681;48.900;9.182;2022-09-09T08:57:55;22.90;99.90
15162;DHT22;7681;48.900;9.182;2022-09-09T09:00:34;23.10;99.90
15162;DHT22;7681;48.900;9.182;2022-09-09T09:03:06;23.70;99.90
15162;DHT22;7681;48.900;9.182;2022-09-09T09:05:41;23.90;99.90
15162;DHT22;7681;48.900;9.182;2022-09-09T09:08:16;24.10;99.90
15162;DHT22;7681;48.900;9.182;2022-09-09T09:10:47;23.90;99.90
15162;DHT22;7681;48.900;9.182;2022-09-09T09:13:18;23.80;99.90
15162;DHT22;7681;48.900;9.182;2022-09-09T09:15:53;24.30;99.90
15162;DHT22;7681;48.900;9.182;2022-09-09T09:18:25;24.40;99.90
15162;DHT22;7681;48.900;9.182;2022-09-09T09:20:58;24.00;99.90
15162;DHT22;7681;48.900;9.182;2022-09-09T09:23:29;23.50;99.90
15162;DHT22;7681;48.900;9.182;2022-09-09T09:26:05;23.10;99.90
15162;DHT22;7681;48.900;9.182;2022-09-09T09:28:36;22.60;99.90
15162;DHT22;7681;48.900;9.182;2022-09-09T09:31:09;22.50;99.90
15162;DHT22;7681;48.900;9.182;2022-09-09T09:33:43;22.20;99.90
15162;DHT22;7681;48.900;9.182;2022-09-09T09:36:15;22.30;99.90
15162;DHT22;7681;48.900;9.182;2022-09-09T09:38:52;22.70;99.90
15162;DHT22;7681;48.900;9.182;2022-09-09T09:41:42;22.50;99.90
15162;DHT22;7681;48.900;9.182;2022-09-09T09:44:21;22.40;99.90
15162;DHT22;7681;48.900;9.182;2022-09-09T09:47:04;22.50;99.90
15162;DHT22;7681;48.900;9.182;2022-09-09T09:49:35;23.00;99.90
15162;DHT22;7681;48.900;9.182;2022-09-09T09:52:05;23.40;99.90
15162;DHT22;7681;48.900;9.182;2022-09-09T09:54:37;23.50;99.90
15162;DHT22;7681;48.900;9.182;2022-09-09T09:57:08;23.80;99.90
15162;DHT22;7681;48.900;9.182;2022-09-09T09:59:39;24.00;99.90
15162;DHT22;7681;48.900;9.182;2022-09-09T10:02:19;24.30;99.90
15162;DHT22;7681;48.900;9.182;2022-09-09T10:05:00;24.60;99.90
15162;DHT22;7681;48.900;9.182;2022-09-09T10:07:30;24.80;99.90
15162;DHT22;7681;48.900;9.182;2022-09-09T10:10:01;24.60;99.90
15162;DHT22;7681;48.900;9.182;2022-09-09T10:12:34;25.00;99.90
15162;DHT22;7681;48.900;9.182;2022-09-09T10:15:07;25.10;99.90
15162;DHT22;7681;48.900;9.182;2022-09-09T10:17:47;25.30;99.90
15162;DHT22;7681;48.900;9.182;2022-09-09T10:20:25;24.50;99.90
15162;DHT22;7681;48.900;9.182;2022-09-09T10:23:01;25.00;99.90
15162;DHT22;7681;48.900;9.182;2022-09-09T10:25:36;25.20;99.90
15162;DHT22;7681;48.900;9.182;2022-09-09T10:28:15;25.70;99.90
15162;DHT22;7681;48.900;9.182;2022-09-09T10:30:51;25.90;99.90
15162;DHT22;7681;48.900;9.182;2022-09-09T10:33:28;25.80;99.90
15162;DHT22;7681;48.900;9.182;2022-09-09T10:36:02;25.10;99.90
15162;DHT22;7681;48.900;9.182;2022-09-09T10:38:38;25.20;99.90
15162;DHT22;7681;48.900;9.182;2022-09-09T10:41:12;25.80;99.90
15162;DHT22;7681;48.900;9.182;2022-09-09T10:43:47;25.80;99.90
15162;DHT22;7681;48.900;9.182;2022-09-09T10:46:19;25.60;99.90
15162;DHT22;7681;48.900;9.182;2022-09-09T10:48:58;25.60;99.90
15162;DHT22;7681;48.900;9.182;2022-09-09T10:51:34;25.30;99.90
15162;DHT22;7681;48.900;9.182;2022-09-09T10:54:12;24.90;99.90
15162;DHT22;7681;48.900;9.182;2022-09-09T10:56:43;24.70;99.90
15162;DHT22;7681;48.900;9.182;2022-09-09T10:59:13;24.20;99.90
15162;DHT22;7681;48.900;9.182;2022-09-09T11:01:46;23.70;99.90
15162;DHT22;7681;48.900;9.182;2022-09-09T11:04:21;23.60;99.90
15162;DHT22;7681;48.900;9.182;2022-09-09T11:06:52;23.40;99.90
15162;DHT22;7681;48.900;9.182;2022-09-09T11:09:24;23.10;99.90
15162;DHT22;7681;48.900;9.182;2022-09-09T11:11:55;22.70;99.90
15162;DHT22;7681;48.900;9.182;2022-09-09T11:14:27;22.40;99.90
15162;DHT22;7681;48.900;9.182;2022-09-09T11:17:04;22.10;99.90
15162;DHT22;7681;48.900;9.182;2022-09-09T11:19:38;22.00;99.90
15162;DHT22;7681;48.900;9.182;2022-09-09T11:22:14;22.00;99.90
15162;DHT22;7681;48.900;9.182;2022-09-09T11:24:45;21.70;99.90
15162;DHT22;7681;48.900;9.182;2022-09-09T11:27:18;21.30;99.90
15162;DHT22;7681;48.900;9.182;2022-09-09T11:33:06;20.20;99.90
15162;DHT22;7681;48.900;9.182;2022-09-09T11:35:42;19.60;99.90
15162;DHT22;7681;48.900;9.182;2022-09-09T11:38:18;19.40;99.90
15162;DHT22;7681;48.900;9.182;2022-09-09T11:40:53;19.30;99.90
15162;DHT22;7681;48.900;9.182;2022-09-09T11:43:26;19.20;99.90
15162;DHT22;7681;48.900;9.182;2022-09-09T11:45:57;19.20;99.90
15162;DHT22;7681;48.900;9.182;2022-09-09T11:48:32;19.30;99.90
15162;DHT22;7681;48.900;9.182;2022-09-09T11:51:06;19.20;99.90
15162;DHT22;7681;48.900;9.182;2022-09-09T11:53:49;19.40;99.90
15162;DHT22;7681;48.900;9.182;2022-09-09T11:56:25;19.20;99.90
15162;DHT22;7681;48.900;9.182;2022-09-09T11:58:57;19.20;99.90
15162;DHT22;7681;48.900;9.182;2022-09-09T12:01:34;19.30;99.90
15162;DHT22;7681;48.900;9.182;2022-09-09T12:06:55;19.60;99.90
15162;DHT22;7681;48.900;9.182;2022-09-09T12:09:30;19.90;99.90
15162;DHT22;7681;48.900;9.182;2022-09-09T12:12:04;20.20;99.90
15162;DHT22;7681;48.900;9.182;2022-09-09T12:14:35;20.30;99.90
15162;DHT22;7681;48.900;9.182;2022-09-09T12:17:18;20.40;99.90
15162;DHT22;7681;48.900;9.182;2022-09-09T12:19:59;20.20;99.90
15162;DHT22;7681;48.900;9.182;2022-09-09T12:22:37;20.30;99.90
15162;DHT22;7681;48.900;9.182;2022-09-09T12:25:12;20.70;99.90
15162;DHT22;7681;48.900;9.182;2022-09-09T12:27:53;21.10;99.90
15162;DHT22;7681;48.900;9.182;2022-09-09T12:30:29;22.30;99.90
15162;DHT22;7681;48.900;9.182;2022-09-09T12:33:01;23.50;99.90
15162;DHT22;7681;48.900;9.182;2022-09-09T12:35:31;24.30;99.90
15162;DHT22;7681;48.900;9.182;2022-09-09T12:38:05;24.90;99.90
15162;DHT22;7681;48.900;9.182;2022-09-09T12:40:38;24.70;99.90
15162;DHT22;7681;48.900;9.182;2022-09-09T12:43:17;24.20;99.90
15162;DHT22;7681;48.900;9.182;2022-09-09T12:45:47;24.10;99.90
15162;DHT22;7681;48.900;9.182;2022-09-09T12:48:25;24.80;99.90
15162;DHT22;7681;48.900;9.182;2022-09-09T12:50:58;25.40;99.90
15162;DHT22;7681;48.900;9.182;2022-09-09T12:53:32;26.00;99.90
15162;DHT22;7681;48.900;9.182;2022-09-09T12:56:04;26.10;99.90
15162;DHT22;7681;48.900;9.182;2022-09-09T12:58:35;25.60;99.90
15162;DHT22;7681;48.900;9.182;2022-09-09T13:01:17;25.70;99.90
15162;DHT22;7681;48.900;9.182;2022-09-09T13:03:48;25.50;99.90
15162;DHT22;7681;48.900;9.182;2022-09-09T13:06:21;25.10;99.90
15162;DHT22;7681;48.900;9.182;2022-09-09T13:08:58;24.40;99.90
15162;DHT22;7681;48.900;9.182;2022-09-09T13:11:29;24.70;99.90
15162;DHT22;7681;48.900;9.182;2022-09-09T13:14:00;24.80;99.90
15162;DHT22;7681;48.900;9.182;2022-09-09T13:16:31;25.10;99.90
15162;DHT22;7681;48.900;9.182;2022-09-09T13:19:07;25.50;99.90
15162;DHT22;7681;48.900;9.182;2022-09-09T13:21:38;25.30;99.90
15162;DHT22;7681;48.900;9.182;2022-09-09T13:24:23;25.50;99.90
15162;DHT22;7681;48.900;9.182;2022-09-09T13:26:55;25.60;99.90
15162;DHT22;7681;48.900;9.182;2022-09-09T13:29:27;26.00;99.90
15162;DHT22;7681;48.900;9.182;2022-09-09T13:32:03;26.00;99.90
15162;DHT22;7681;48.900;9.182;2022-09-09T13:34:34;26.40;99.90
15162;DHT22;7681;48.900;9.182;2022-09-09T13:37:05;26.30;99.90
15162;DHT22;7681;48.900;9.182;2022-09-09T13:39:37;25.80;99.90
15162;DHT22;7681;48.900;9.182;2022-09-09T13:42:19;26.20;99.90
15162;DHT22;7681;48.900;9.182;2022-09-09T13:44:52;25.90;99.90
15162;DHT22;7681;48.900;9.182;2022-09-09T13:47:26;25.50;99.90
15162;DHT22;7681;48.900;9.182;2022-09-09T13:49:56;25.30;99.90
15162;DHT22;7681;48.900;9.182;2022-09-09T13:52:26;25.60;99.90
15162;DHT22;7681;48.900;9.182;2022-09-09T13:55:00;25.60;99.90
15162;DHT22;7681;48.900;9.182;2022-09-09T13:57:29;25.40;99.90
15162;DHT22;7681;48.900;9.182;2022-09-09T13:59:59;25.10;99.90
15162;DHT22;7681;48.900;9.182;2022-09-09T14:02:31;24.70;99.90
15162;DHT22;7681;48.900;9.182;2022-09-09T14:05:01;24.60;99.90
15162;DHT22;7681;48.900;9.182;2022-09-09T14:07:32;24.40;99.90
15162;DHT22;7681;48.900;9.182;2022-09-09T14:10:05;24.40;99.90
15162;DHT22;7681;48.900;9.182;2022-09-09T14:12:34;24.00;99.90
15162;DHT22;7681;48.900;9.182;2022-09-09T14:15:05;23.80;99.90
15162;DHT22;7681;48.900;9.182;2022-09-09T14:17:36;23.50;99.90
15162;DHT22;7681;48.900;9.182;2022-09-09T14:20:06;23.30;99.90
15162;DHT22;7681;48.900;9.182;2022-09-09T14:22:36;22.90;99.90
15162;DHT22;7681;48.900;9.182;2022-09-09T14:25:09;22.80;99.90
15162;DHT22;7681;48.900;9.182;2022-09-09T14:27:40;22.80;99.90
15162;DHT22;7681;48.900;9.182;2022-09-09T14:30:10;22.80;99.90
15162;DHT22;7681;48.900;9.182;2022-09-09T14:32:40;23.00;99.90
15162;DHT22;7681;48.900;9.182;2022-09-09T14:35:10;23.30;99.90
15162;DHT22;7681;48.900;9.182;2022-09-09T14:37:39;23.50;99.90
15162;DHT22;7681;48.900;9.182;2022-09-09T14:40:12;23.90;99.90
15162;DHT22;7681;48.900;9.182;2022-09-09T14:42:43;23.70;99.90
15162;DHT22;7681;48.900;9.182;2022-09-09T14:45:13;23.50;99.90
15162;DHT22;7681;48.900;9.182;2022-09-09T14:47:43;23.60;99.90
15162;DHT22;7681;48.900;9.182;2022-09-09T14:50:12;23.50;99.90
15162;DHT22;7681;48.900;9.182;2022-09-09T14:52:42;23.30;99.90
15162;DHT22;7681;48.900;9.182;2022-09-09T14:55:14;23.30;99.90
15162;DHT22;7681;48.900;9.182;2022-09-09T14:57:44;23.30;99.90
15162;DHT22;7681;48.900;9.182;2022-09-09T15:00:14;22.90;99.90
15162;DHT22;7681;48.900;9.182;2022-09-09T15:02:44;22.90;99.90
15162;DHT22;7681;48.900;9.182;2022-09-09T15:05:14;23.00;99.90
15162;DHT22;7681;48.900;9.182;2022-09-09T15:07:43;22.90;99.90
15162;DHT22;7681;48.900;9.182;2022-09-09T15:10:16;22.90;99.90
15162;DHT22;7681;48.900;9.182;2022-09-09T15:12:47;22.70;99.90
15162;DHT22;7681;48.900;9.182;2022-09-09T15:15:17;22.50;99.90
15162;DHT22;7681;48.900;9.182;2022-09-09T15:17:46;22.40;99.90
15162;DHT22;7681;48.900;9.182;2022-09-09T15:20:16;22.30;99.90
15162;DHT22;7681;48.900;9.182;2022-09-09T15:22:46;22.10;99.90
15162;DHT22;7681;48.900;9.182;2022-09-09T15:25:20;22.20;99.90
15162;DHT22;7681;48.900;9.182;2022-09-09T15:27:49;22.10;99.90
15162;DHT22;7681;48.900;9.182;2022-09-09T15:30:19;22.20;99.90
15162;DHT22;7681;48.900;9.182;2022-09-09T15:32:49;22.10;99.90
15162;DHT22;7681;48.900;9.182;2022-09-09T15:35:19;22.30;99.90
15162;DHT22;7681;48.900;9.182;2022-09-09T15:37:48;24.10;99.90
15162;DHT22;7681;48.900;9.182;2022-09-09T15:40:21;25.30;99.90
15162;DHT22;7681;48.900;9.182;2022-09-09T15:42:50;26.00;99.90
15162;DHT22;7681;48.900;9.182;2022-09-09T15:45:20;25.40;99.90
15162;DHT22;7681;48.900;9.182;2022-09-09T15:47:50;24.30;99.90
15162;DHT22;7681;48.900;9.182;2022-09-09T15:50:19;23.50;99.90
15162;DHT22;7681;48.900;9.182;2022-09-09T15:52:49;23.00;99.90
15162;DHT22;7681;48.900;9.182;2022-09-09T15:55:24;22.60;99.90
15162;DHT22;7681;48.900;9.182;2022-09-09T15:57:54;22.20;99.90
15162;DHT22;7681;48.900;9.182;2022-09-09T16:00:24;22.00;99.90
15162;DHT22;7681;48.900;9.182;2022-09-09T16:02:55;21.80;99.90
15162;DHT22;7681;48.900;9.182;2022-09-09T16:05:24;21.60;99.90
15162;DHT22;7681;48.900;9.182;2022-09-09T16:07:54;21.50;99.90
15162;DHT22;7681;48.900;9.182;2022-09-09T16:10:27;21.50;99.90
15162;DHT22;7681;48.900;9.182;2022-09-09T16:12:57;21.40;99.90
15162;DHT22;7681;48.900;9.182;2022-09-09T16:15:29;21.20;99.90
15162;DHT22;7681;48.900;9.182;2022-09-09T16:17:58;21.10;99.90
15162;DHT22;7681;48.900;9.182;2022-09-09T16:20:30;21.00;99.90
15162;DHT22;7681;48.900;9.182;2022-09-09T16:22:59;21.00;99.90
15162;DHT22;7681;48.900;9.182;2022-09-09T16:25:31;20.90;99.90